createdAt,value
2022-07-25T00:00:48.363Z,0.00
2022-07-25T00:01:48.391Z,0.00
2022-07-25T00:02:48.376Z,0.00
2022-07-25T00:03:48.516Z,0.00
2022-07-25T00:04:48.519Z,0.00
2022-07-25T00:05:48.288Z,0.00
2022-07-25T00:06:48.305Z,0.00
2022-07-25T00:07:48.258Z,0.00
2022-07-25T00:08:48.326Z,0.00
2022-07-25T00:09:48.257Z,0.00
2022-07-25T00:10:48.349Z,0.00
2022-07-25T00:11:48.239Z,0.00
2022-07-25T00:12:49.265Z,0.00
2022-07-25T00:13:48.227Z,0.00
2022-07-25T00:14:48.305Z,0.00
2022-07-25T00:15:48.219Z,0.00
2022-07-25T00:16:49.191Z,0.00
2022-07-25T00:17:48.147Z,0.00
2022-07-25T00:18:48.179Z,0.00
2022-07-25T00:19:48.140Z,0.00
2022-07-25T00:20:48.197Z,0.00
2022-07-25T00:21:48.118Z,0.00
2022-07-25T00:22:48.209Z,0.00
2022-07-25T00:23:48.078Z,0.00
2022-07-25T00:24:48.194Z,0.00
2022-07-25T00:25:48.079Z,0.00
2022-07-25T00:26:48.131Z,0.00
2022-07-25T00:27:48.040Z,0.00
2022-07-25T00:28:48.040Z,0.00
2022-07-25T00:29:48.028Z,0.00
2022-07-25T00:30:48.133Z,0.00
2022-07-25T00:31:48.049Z,0.00
2022-07-25T00:32:48.070Z,0.00
2022-07-25T00:33:47.974Z,0.00
2022-07-25T00:34:48.036Z,0.00
2022-07-25T00:35:47.949Z,0.00
2022-07-25T00:36:47.997Z,0.00
2022-07-25T00:37:47.946Z,0.00
2022-07-25T00:38:48.026Z,0.00
2022-07-25T00:39:47.919Z,0.00
2022-07-25T00:40:54.369Z,0.00
2022-07-25T00:41:48.875Z,0.00
2022-07-25T00:42:47.936Z,0.00
2022-07-25T00:43:47.873Z,0.00
2022-07-25T00:44:47.896Z,0.00
2022-07-25T00:45:47.833Z,0.00
2022-07-25T00:46:47.944Z,0.00
2022-07-25T00:47:47.837Z,0.00
2022-07-25T00:48:47.963Z,0.00
2022-07-25T00:49:47.802Z,0.00
2022-07-25T00:50:47.905Z,0.00
2022-07-25T00:51:47.771Z,0.00
2022-07-25T00:52:47.799Z,0.00
2022-07-25T00:53:47.758Z,0.00
2022-07-25T00:54:47.775Z,0.00
2022-07-25T00:55:47.720Z,0.00
2022-07-25T00:57:08.820Z,0.00
2022-07-25T00:57:47.699Z,0.00
2022-07-25T00:59:09.810Z,0.00
2022-07-25T00:59:47.674Z,0.00
2022-07-25T01:00:49.698Z,0.00
2022-07-25T01:01:47.930Z,0.00
2022-07-25T01:02:47.765Z,0.00
2022-07-25T01:03:47.632Z,0.00
2022-07-25T01:04:47.728Z,0.00
2022-07-25T01:05:53.103Z,0.00
2022-07-25T01:06:48.613Z,0.00
2022-07-25T01:07:47.582Z,0.00
2022-07-25T01:08:47.623Z,0.00
2022-07-25T01:09:47.579Z,0.00
2022-07-25T01:10:47.615Z,0.00
2022-07-25T01:11:47.541Z,0.00
2022-07-25T01:12:47.636Z,0.00
2022-07-25T01:13:47.516Z,0.00
2022-07-25T01:14:47.611Z,0.00
2022-07-25T01:15:47.542Z,0.00
2022-07-25T01:16:47.554Z,0.00
2022-07-25T01:17:47.479Z,0.00
2022-07-25T01:18:47.571Z,0.00
2022-07-25T01:19:47.465Z,0.00
2022-07-25T01:20:47.481Z,0.00
2022-07-25T01:21:47.427Z,0.00
2022-07-25T01:22:47.522Z,0.00
2022-07-25T01:23:47.401Z,0.00
2022-07-25T01:24:47.457Z,0.00
2022-07-25T01:25:47.403Z,0.00
2022-07-25T01:26:47.422Z,0.00
2022-07-25T01:27:51.413Z,0.00
2022-07-25T01:28:48.458Z,0.00
2022-07-25T01:29:47.357Z,0.00
2022-07-25T01:30:47.431Z,0.00
2022-07-25T01:31:47.315Z,0.00
2022-07-25T01:32:47.360Z,0.00
2022-07-25T01:33:47.289Z,0.00
2022-07-25T01:34:47.346Z,0.00
2022-07-25T01:35:47.267Z,0.00
2022-07-25T01:36:47.287Z,0.00
2022-07-25T01:37:47.251Z,0.00
2022-07-25T01:38:47.298Z,0.00
2022-07-25T01:39:47.240Z,0.00
2022-07-25T01:41:09.345Z,0.00
2022-07-25T01:41:47.206Z,0.00
2022-07-25T01:43:08.214Z,0.00
2022-07-25T01:43:47.207Z,0.00
2022-07-25T01:44:48.216Z,0.00
2022-07-25T01:45:47.222Z,0.00
2022-07-25T01:46:48.234Z,0.00
2022-07-25T01:47:47.133Z,0.00
2022-07-25T01:48:47.216Z,0.00
2022-07-25T01:49:47.150Z,0.00
2022-07-25T01:50:47.174Z,0.00
2022-07-25T01:51:47.126Z,0.00
2022-07-25T01:52:47.188Z,0.00
2022-07-25T01:53:47.070Z,0.00
2022-07-25T01:54:47.168Z,0.00
2022-07-25T01:55:47.043Z,0.00
2022-07-25T01:56:48.175Z,0.00
2022-07-25T01:57:49.443Z,0.00
2022-07-25T01:58:47.027Z,0.00
2022-07-25T01:59:47.030Z,0.00
2022-07-25T02:00:47.045Z,0.00
2022-07-25T02:01:47.057Z,0.00
2022-07-25T02:02:47.088Z,0.00
2022-07-25T02:03:46.957Z,0.00
2022-07-25T02:04:47.097Z,0.00
2022-07-25T02:05:46.934Z,0.00
2022-07-25T02:06:46.978Z,0.00
2022-07-25T02:07:46.913Z,0.00
2022-07-25T02:08:46.995Z,0.00
2022-07-25T02:09:46.925Z,0.00
2022-07-25T02:10:46.905Z,0.00
2022-07-25T02:11:46.864Z,0.00
2022-07-25T02:12:46.916Z,0.00
2022-07-25T02:13:46.845Z,0.00
2022-07-25T02:14:46.881Z,0.00
2022-07-25T02:15:46.821Z,0.00
2022-07-25T02:16:46.896Z,0.00
2022-07-25T02:17:46.802Z,0.00
2022-07-25T02:18:47.745Z,0.00
2022-07-25T02:19:46.816Z,0.00
2022-07-25T02:20:46.869Z,0.00
2022-07-25T02:21:46.752Z,0.00
2022-07-25T02:22:48.849Z,0.00
2022-07-25T02:23:46.734Z,0.00
2022-07-25T02:24:46.866Z,0.00
2022-07-25T02:25:46.709Z,0.00
2022-07-25T02:27:08.752Z,0.00
2022-07-25T02:27:46.694Z,0.00
2022-07-25T02:28:46.675Z,0.00
2022-07-25T02:29:47.708Z,0.00
2022-07-25T02:30:46.753Z,0.00
2022-07-25T02:31:47.665Z,0.00
2022-07-25T02:32:46.629Z,0.00
2022-07-25T02:33:46.677Z,0.00
2022-07-25T02:34:46.632Z,0.00
2022-07-25T02:35:46.666Z,0.00
2022-07-25T02:36:46.611Z,0.00
2022-07-25T02:37:46.696Z,0.00
2022-07-25T02:38:46.565Z,0.00
2022-07-25T02:39:46.647Z,0.00
2022-07-25T02:40:46.557Z,0.00
2022-07-25T02:41:46.610Z,0.00
2022-07-25T02:42:46.544Z,0.00
2022-07-25T02:43:46.639Z,0.00
2022-07-25T02:44:46.520Z,0.00
2022-07-25T02:45:46.614Z,0.00
2022-07-25T02:46:46.497Z,0.00
2022-07-25T02:47:46.548Z,0.00
2022-07-25T02:48:46.514Z,0.00
2022-07-25T02:49:46.540Z,0.00
2022-07-25T02:50:46.434Z,0.00
2022-07-25T02:51:46.470Z,0.00
2022-07-25T02:52:46.407Z,0.00
2022-07-25T02:53:57.120Z,0.00
2022-07-25T02:54:47.407Z,0.00
2022-07-25T02:55:46.396Z,0.00
2022-07-25T02:56:46.362Z,0.00
2022-07-25T02:57:46.410Z,4.00
2022-07-25T02:58:46.341Z,4.00
2022-07-25T02:59:46.421Z,4.00
2022-07-25T03:00:46.336Z,0.00
2022-07-25T03:01:46.386Z,4.00
2022-07-25T03:02:46.313Z,4.00
2022-07-25T03:03:46.456Z,4.00
2022-07-25T03:04:46.274Z,4.00
2022-07-25T03:05:46.317Z,8.00
2022-07-25T03:06:46.249Z,8.00
2022-07-25T03:08:08.289Z,8.00
2022-07-25T03:08:46.226Z,12.00
2022-07-25T03:09:46.214Z,12.00
2022-07-25T03:10:47.247Z,12.00
2022-07-25T03:11:46.197Z,16.00
2022-07-25T03:12:46.217Z,16.00
2022-07-25T03:13:46.172Z,20.00
2022-07-25T03:14:46.220Z,20.00
2022-07-25T03:15:46.165Z,28.00
2022-07-25T03:16:46.289Z,32.00
2022-07-25T03:17:46.126Z,32.00
2022-07-25T03:18:46.147Z,40.00
2022-07-25T03:19:46.132Z,44.00
2022-07-25T03:20:46.217Z,48.00
2022-07-25T03:21:46.115Z,56.00
2022-07-25T03:22:46.172Z,60.00
2022-07-25T03:23:50.531Z,68.00
2022-07-25T03:24:47.105Z,72.00
2022-07-25T03:25:46.084Z,84.00
2022-07-25T03:26:46.105Z,92.00
2022-07-25T03:27:46.065Z,104.00
2022-07-25T03:28:46.146Z,112.00
2022-07-25T03:29:45.993Z,124.00
2022-07-25T03:30:46.072Z,144.00
2022-07-25T03:31:46.079Z,156.00
2022-07-25T03:32:46.038Z,172.00
2022-07-25T03:33:45.954Z,192.00
2022-07-25T03:34:46.050Z,208.00
2022-07-25T03:35:45.948Z,224.00
2022-07-25T03:36:45.961Z,248.00
2022-07-25T03:37:45.903Z,268.00
2022-07-25T03:38:45.976Z,292.00
2022-07-25T03:39:45.881Z,320.00
2022-07-25T03:40:45.946Z,340.00
2022-07-25T03:41:45.866Z,368.00
2022-07-25T03:42:45.904Z,396.00
2022-07-25T03:43:45.838Z,428.00
2022-07-25T03:44:45.915Z,460.00
2022-07-25T03:45:45.941Z,488.00
2022-07-25T03:46:45.824Z,524.00
2022-07-25T03:47:45.818Z,560.00
2022-07-25T03:48:45.901Z,596.00
2022-07-25T03:49:45.775Z,632.00
2022-07-25T03:50:48.874Z,672.00
2022-07-25T03:51:45.750Z,712.00
2022-07-25T03:52:46.807Z,748.00
2022-07-25T03:53:45.724Z,792.00
2022-07-25T03:55:06.823Z,832.00
2022-07-25T03:55:45.705Z,872.00
2022-07-25T03:56:45.692Z,916.00
2022-07-25T03:57:45.701Z,956.00
2022-07-25T03:58:45.667Z,1000.00
2022-07-25T03:59:45.711Z,1036.00
2022-07-25T04:00:45.764Z,1080.00
2022-07-25T04:01:45.723Z,1120.00
2022-07-25T04:02:45.712Z,1160.00
2022-07-25T04:03:45.637Z,1204.00
2022-07-25T04:04:45.617Z,1248.00
2022-07-25T04:05:47.688Z,1292.00
2022-07-25T04:06:45.577Z,1344.00
2022-07-25T04:07:45.664Z,1396.00
2022-07-25T04:08:45.562Z,1444.00
2022-07-25T04:09:45.575Z,1492.00
2022-07-25T04:10:45.553Z,1540.00
2022-07-25T04:11:45.590Z,1588.00
2022-07-25T04:12:45.513Z,1636.00
2022-07-25T04:13:45.604Z,1696.00
2022-07-25T04:14:45.485Z,1752.00
2022-07-25T04:15:45.570Z,1808.00
2022-07-25T04:16:45.518Z,1868.00
2022-07-25T04:17:45.530Z,1924.00
2022-07-25T04:18:45.442Z,1976.00
2022-07-25T04:19:45.543Z,2024.00
2022-07-25T04:20:45.437Z,2076.00
2022-07-25T04:21:45.452Z,2136.00
2022-07-25T04:22:47.097Z,2196.00
2022-07-25T04:23:45.470Z,2260.00
2022-07-25T04:24:45.388Z,2312.00
2022-07-25T04:25:45.432Z,2376.00
2022-07-25T04:26:45.355Z,2440.00
2022-07-25T04:27:45.392Z,2500.00
2022-07-25T04:28:45.327Z,2560.00
2022-07-25T04:29:45.405Z,2616.00
2022-07-25T04:30:45.342Z,2668.00
2022-07-25T04:31:45.370Z,2712.00
2022-07-25T04:32:45.284Z,2752.00
2022-07-25T04:33:46.360Z,2784.00
2022-07-25T04:34:45.271Z,2816.00
2022-07-25T04:35:45.290Z,2836.00
2022-07-25T04:36:45.244Z,2860.00
2022-07-25T04:37:46.281Z,2876.00
2022-07-25T04:38:45.223Z,2896.00
2022-07-25T04:40:54.848Z,2952.00
2022-07-25T04:41:54.744Z,2988.00
2022-07-25T04:42:54.813Z,3036.00
2022-07-25T04:43:54.722Z,3084.00
2022-07-25T04:44:54.829Z,3128.00
2022-07-25T04:45:54.762Z,3168.00
2022-07-25T04:46:54.736Z,3208.00
2022-07-25T04:47:54.676Z,3180.00
2022-07-25T04:48:55.804Z,3260.00
2022-07-25T04:49:54.659Z,3336.00
2022-07-25T04:50:54.731Z,3336.00
2022-07-25T04:51:54.637Z,3296.00
2022-07-25T04:54:04.673Z,3036.00
2022-07-25T04:55:04.156Z,2956.00
2022-07-25T04:56:04.169Z,2996.00
2022-07-25T04:57:04.128Z,3060.00
2022-07-25T04:58:04.133Z,3148.00
2022-07-25T04:59:06.097Z,3216.00
2022-07-25T05:00:04.164Z,3304.00
2022-07-25T05:01:04.209Z,3264.00
2022-07-25T05:02:04.302Z,3308.00
2022-07-25T05:03:04.071Z,3268.00
2022-07-25T05:04:04.611Z,3252.00
2022-07-25T05:05:04.046Z,3284.00
2022-07-25T05:06:04.138Z,3356.00
2022-07-25T05:07:04.021Z,3488.00
2022-07-25T05:08:05.023Z,3564.00
2022-07-25T05:09:04.003Z,3620.00
2022-07-25T05:10:04.011Z,3588.00
2022-07-25T05:11:04.004Z,3532.00
2022-07-25T05:12:04.024Z,3768.00
2022-07-25T05:13:03.948Z,3908.00
2022-07-25T05:14:04.463Z,3968.00
2022-07-25T05:15:03.940Z,3924.00
2022-07-25T05:16:04.092Z,3932.00
2022-07-25T05:17:03.910Z,4180.00
2022-07-25T05:18:03.962Z,4320.00
2022-07-25T05:19:03.883Z,4692.00
2022-07-25T05:20:03.980Z,4536.00
2022-07-25T05:21:03.880Z,4396.00
2022-07-25T05:22:03.891Z,4756.00
2022-07-25T05:23:03.838Z,4940.00
2022-07-25T05:24:04.334Z,4916.00
2022-07-25T05:25:03.818Z,5220.00
2022-07-25T05:26:03.878Z,4820.00
2022-07-25T05:27:03.852Z,4772.00
2022-07-25T05:28:03.832Z,4456.00
2022-07-25T05:29:03.796Z,4400.00
2022-07-25T05:30:03.845Z,4684.00
2022-07-25T05:31:03.833Z,4924.00
2022-07-25T05:32:03.822Z,5020.00
2022-07-25T05:33:03.733Z,4456.00
2022-07-25T05:34:04.185Z,4636.00
2022-07-25T05:35:03.710Z,4440.00
2022-07-25T05:36:03.736Z,5176.00
2022-07-25T05:37:03.694Z,4628.00
2022-07-25T05:38:03.697Z,4816.00
2022-07-25T05:39:03.669Z,5116.00
2022-07-25T05:40:03.708Z,3744.00
2022-07-25T05:41:03.669Z,4224.00
2022-07-25T05:42:03.722Z,4112.00
2022-07-25T05:43:03.895Z,3504.00
2022-07-25T05:44:03.998Z,3524.00
2022-07-25T05:45:03.603Z,3640.00
2022-07-25T05:46:03.738Z,3632.00
2022-07-25T05:47:03.625Z,3744.00
2022-07-25T05:48:25.727Z,3836.00
2022-07-25T05:49:03.622Z,3948.00
2022-07-25T05:50:03.578Z,4000.00
2022-07-25T05:51:03.550Z,4316.00
2022-07-25T05:53:13.171Z,4996.00
2022-07-25T05:54:13.059Z,4788.00
2022-07-25T05:55:13.131Z,4672.00
2022-07-25T05:56:13.053Z,5812.00
2022-07-25T05:57:13.156Z,5720.00
2022-07-25T05:58:13.019Z,5952.00
2022-07-25T05:59:13.058Z,6180.00
2022-07-25T06:00:12.994Z,6672.00
2022-07-25T06:01:16.090Z,5644.00
2022-07-25T06:02:13.074Z,6432.00
2022-07-25T06:03:34.093Z,6608.00
2022-07-25T06:04:12.948Z,6300.00
2022-07-25T06:05:35.012Z,6064.00
2022-07-25T06:06:12.946Z,7236.00
2022-07-25T06:07:16.839Z,7640.00
2022-07-25T06:08:13.966Z,7912.00
2022-07-25T06:09:12.910Z,8036.00
2022-07-25T06:10:12.923Z,8232.00
2022-07-25T06:11:12.919Z,8548.00
2022-07-25T06:12:12.939Z,8884.00
2022-07-25T06:13:12.915Z,9040.00
2022-07-25T06:14:12.977Z,9064.00
2022-07-25T06:15:19.220Z,9620.00
2022-07-25T06:16:13.940Z,10380.00
2022-07-25T06:17:12.885Z,10524.00
2022-07-25T06:18:12.824Z,10408.00
2022-07-25T06:19:12.884Z,9444.00
2022-07-25T06:20:12.801Z,9916.00
2022-07-25T06:21:12.870Z,9412.00
2022-07-25T06:22:12.769Z,9336.00
2022-07-25T06:23:12.816Z,9148.00
2022-07-25T06:24:12.745Z,10104.00
2022-07-25T06:25:12.837Z,10444.00
2022-07-25T06:26:12.748Z,9688.00
2022-07-25T06:27:14.971Z,9736.00
2022-07-25T06:28:13.709Z,8940.00
2022-07-25T06:29:12.751Z,8752.00
2022-07-25T06:30:19.836Z,8352.00
2022-07-25T06:31:13.808Z,8972.00
2022-07-25T06:32:12.649Z,8436.00
2022-07-25T06:33:12.677Z,8324.00
2022-07-25T06:34:12.650Z,8444.00
2022-07-25T06:35:12.686Z,8452.00
2022-07-25T06:36:12.638Z,8600.00
2022-07-25T06:37:12.723Z,9008.00
2022-07-25T06:38:12.581Z,9428.00
2022-07-25T06:39:12.612Z,9688.00
2022-07-25T06:40:12.559Z,9216.00
2022-07-25T06:41:12.597Z,9528.00
2022-07-25T06:42:12.541Z,9304.00
2022-07-25T06:43:12.538Z,8764.00
2022-07-25T06:44:12.512Z,9208.00
2022-07-25T06:45:13.579Z,8960.00
2022-07-25T06:46:12.561Z,8408.00
2022-07-25T06:47:13.592Z,8448.00
2022-07-25T06:48:12.484Z,8548.00
2022-07-25T06:50:22.057Z,9504.00
2022-07-25T06:51:21.950Z,8816.00
2022-07-25T06:52:22.022Z,9224.00
2022-07-25T06:53:21.938Z,9600.00
2022-07-25T06:54:43.027Z,8880.00
2022-07-25T06:55:21.924Z,8256.00
2022-07-25T06:56:22.983Z,8168.00
2022-07-25T06:57:21.889Z,8868.00
2022-07-25T06:59:32.054Z,9312.00
2022-07-25T07:00:32.056Z,8684.00
2022-07-25T07:01:32.156Z,9808.00
2022-07-25T07:02:31.936Z,8348.00
2022-07-25T07:03:31.972Z,8124.00
2022-07-25T07:04:31.905Z,10860.00
2022-07-25T07:05:31.995Z,9548.00
2022-07-25T07:06:31.886Z,10356.00
2022-07-25T07:07:31.957Z,12040.00
2022-07-25T07:08:31.864Z,11828.00
2022-07-25T07:09:52.963Z,11528.00
2022-07-25T07:10:31.884Z,13236.00
2022-07-25T07:11:31.900Z,15776.00
2022-07-25T07:12:31.815Z,17664.00
2022-07-25T07:13:54.832Z,17376.00
2022-07-25T07:14:31.793Z,17568.00
2022-07-25T07:15:31.823Z,16384.00
2022-07-25T07:16:31.923Z,12368.00
2022-07-25T07:17:31.761Z,14192.00
2022-07-25T07:18:31.826Z,13532.00
2022-07-25T07:19:31.739Z,10508.00
2022-07-25T07:20:31.792Z,12240.00
2022-07-25T07:21:31.727Z,9316.00
2022-07-25T07:22:31.768Z,8336.00
2022-07-25T07:23:31.705Z,8100.00
2022-07-25T07:24:31.765Z,7948.00
2022-07-25T07:25:31.694Z,7828.00
2022-07-25T07:26:31.785Z,7796.00
2022-07-25T07:27:31.654Z,7928.00
2022-07-25T07:28:31.692Z,7944.00
2022-07-25T07:29:31.681Z,8168.00
2022-07-25T07:30:58.736Z,8104.00
2022-07-25T07:31:32.699Z,9464.00
2022-07-25T07:32:31.630Z,9868.00
2022-07-25T07:33:31.625Z,10256.00
2022-07-25T07:34:31.593Z,9084.00
2022-07-25T07:35:34.931Z,9704.00
2022-07-25T07:36:31.583Z,10000.00
2022-07-25T07:37:36.547Z,10156.00
2022-07-25T07:38:32.551Z,9668.00
2022-07-25T07:39:31.582Z,10144.00
2022-07-25T07:40:31.522Z,11400.00
2022-07-25T07:41:31.580Z,10772.00
2022-07-25T07:42:31.487Z,10572.00
2022-07-25T07:43:31.638Z,12428.00
2022-07-25T07:44:31.485Z,12964.00
2022-07-25T07:45:31.554Z,12768.00
2022-07-25T07:46:31.514Z,11272.00
2022-07-25T07:47:31.515Z,12536.00
2022-07-25T07:48:31.524Z,13356.00
2022-07-25T07:49:31.433Z,13600.00
2022-07-25T07:50:32.415Z,13580.00
2022-07-25T07:51:32.484Z,13648.00
2022-07-25T07:52:31.382Z,13280.00
2022-07-25T07:53:31.512Z,13388.00
2022-07-25T07:54:31.362Z,14004.00
2022-07-25T07:55:31.417Z,14184.00
2022-07-25T07:56:31.351Z,13180.00
2022-07-25T07:57:52.374Z,13016.00
2022-07-25T07:58:31.314Z,13200.00
2022-07-25T07:59:33.414Z,12796.00
2022-07-25T08:00:31.347Z,13196.00
2022-07-25T08:01:31.386Z,13120.00
2022-07-25T08:02:31.321Z,13404.00
2022-07-25T08:03:31.320Z,13844.00
2022-07-25T08:04:31.270Z,13532.00
2022-07-25T08:05:31.295Z,13592.00
2022-07-25T08:06:31.226Z,13284.00
2022-07-25T08:07:31.247Z,13200.00
2022-07-25T08:08:31.778Z,13668.00
2022-07-25T08:09:31.304Z,13892.00
2022-07-25T08:10:31.225Z,14468.00
2022-07-25T08:11:31.272Z,15232.00
2022-07-25T08:12:31.166Z,15904.00
2022-07-25T08:13:31.185Z,16416.00
2022-07-25T08:14:31.147Z,17056.00
2022-07-25T08:15:31.258Z,17440.00
2022-07-25T08:16:31.256Z,17856.00
2022-07-25T08:17:31.209Z,18208.00
2022-07-25T08:18:31.120Z,18336.00
2022-07-25T08:19:31.130Z,18112.00
2022-07-25T08:20:38.936Z,18400.00
2022-07-25T08:21:32.093Z,18880.00
2022-07-25T08:22:31.143Z,18880.00
2022-07-25T08:23:31.058Z,17952.00
2022-07-25T08:24:31.170Z,17376.00
2022-07-25T08:25:31.053Z,17824.00
2022-07-25T08:26:31.068Z,17920.00
2022-07-25T08:27:31.017Z,18240.00
2022-07-25T08:28:31.081Z,18144.00
2022-07-25T08:29:30.997Z,18016.00
2022-07-25T08:30:31.048Z,18112.00
2022-07-25T08:31:31.120Z,17536.00
2022-07-25T08:32:31.059Z,17152.00
2022-07-25T08:33:30.967Z,16928.00
2022-07-25T08:34:31.044Z,16736.00
2022-07-25T08:35:30.948Z,16096.00
2022-07-25T08:36:34.583Z,15936.00
2022-07-25T08:37:30.909Z,16160.00
2022-07-25T08:38:30.946Z,16320.00
2022-07-25T08:39:30.907Z,16608.00
2022-07-25T08:40:31.002Z,17184.00
2022-07-25T08:41:30.869Z,17920.00
2022-07-25T08:42:51.966Z,18272.00
2022-07-25T08:43:30.938Z,18816.00
2022-07-25T08:45:40.465Z,20192.00
2022-07-25T08:46:40.401Z,20064.00
2022-07-25T08:47:40.425Z,19552.00
2022-07-25T08:48:40.373Z,19424.00
2022-07-25T08:49:40.442Z,19264.00
2022-07-25T08:50:40.337Z,19040.00
2022-07-25T08:51:40.366Z,18464.00
2022-07-25T08:52:40.292Z,18464.00
2022-07-25T08:53:41.392Z,18080.00
2022-07-25T08:54:40.274Z,17792.00
2022-07-25T08:55:42.383Z,17376.00
2022-07-25T08:56:40.257Z,17056.00
